Aviation Digital Data Service (ADDS)

Output produced by METARs form (1715 UTC 24 June 2019)
found at http://www.aviationweather.gov/metar/data/
 
Forecast for: FMMI (ANTANANARIVO/IVA, KM)
Text: TAF FMMI 241700Z 2418/2524 VRB04KT 9999 SCT020
Forecast period: 1800 UTC 24 June 2019 to 0000 UTC 26 June 2019
Forecast type: FROM: standard forecast or significant change
Winds: variable direction winds at 5 MPH (4 knots; 2.1 m/s)
Visibility: 6 or more miles 10+ km)
Ceiling: at least 12,000 feet AGL
Clouds: scattered clouds at 2000 feet AGL
Weather: no significant weather forecast for this period
Text: PROB40 2501/2506 0400 FG BKN004
Forecast period: 0100 to 0600 UTC 25 June 2019
Forecast type: PROBABLE: 40 percent likelihood of the following during this time
Visibility: 0.25 miles (0.40 km)
Ceiling: 400 feet AGL
Clouds: broken clouds at 400 feet AGL
Weather: FG  (fog)